Date,TemperatureHighF,TemperatureAvgF,TemperatureLowF,DewpointHighF,DewpointAvgF,DewpointLowF,HumidityHigh,HumidityAvg,HumidityLow,PressureMaxIn,PressureMinIn,WindSpeedMaxMPH,WindSpeedAvgMPH,GustSpeedMaxMPH,PrecipitationSumIn
2013-3-1,58,41,25,-100,-100,-100,0,0,100,0.00,40.00,0,-999,0,0.00
2013-3-2,54,41,29,-100,-100,-100,0,0,100,0.00,40.00,0,-999,0,0.00
2013-3-3,68,50,31,-100,-100,-100,0,0,100,0.00,40.00,0,-999,0,0.00
2013-3-4,80,60,51,-100,-100,-100,0,0,100,0.00,40.00,0,-999,0,0.00
2013-3-5,63,50,43,-100,-100,-100,0,0,100,0.00,40.00,0,-999,0,0.00
2013-3-6,58,40,28,-100,-100,-100,0,0,100,0.00,40.00,0,-999,0,0.00
2013-3-7,68,53,36,-100,-100,-100,0,0,100,0.00,40.00,0,-999,0,0.00
2013-3-8,58,56,52,-100,-100,-100,0,0,100,0.00,40.00,0,-999,0,0.00
2013-3-9,65,62,57,-100,-100,-100,0,0,100,0.00,40.00,0,-999,0,0.00
2013-3-10,58,50,42,-100,-100,-100,0,0,100,0.00,40.00,0,-999,0,0.00
2013-3-11,61,43,29,-100,-100,-100,0,0,100,0.00,40.00,0,-999,0,0.00
2013-3-12,71,50,35,-100,-100,-100,0,0,100,0.00,40.00,0,-999,0,0.00
2013-3-13,67,48,32,-100,-100,-100,0,0,100,0.00,40.00,0,-999,0,0.00
2013-3-14,74,58,43,-100,-100,-100,0,0,100,0.00,40.00,0,-999,0,0.00
2013-3-15,78,64,51,-100,-100,-100,0,0,100,0.00,40.00,0,-999,0,0.00
2013-3-16,77,64,54,-100,-100,-100,0,0,100,0.00,40.00,0,-999,0,0.00
2013-3-17,72,64,60,-100,-100,-100,0,0,100,0.00,40.00,0,-999,0,0.00
2013-3-18,71,62,53,-100,-100,-100,0,0,100,0.00,40.00,0,-999,0,0.00
2013-3-19,65,53,45,-100,-100,-100,0,0,100,0.00,40.00,0,-999,0,0.00
2013-3-20,70,56,44,-100,-100,-100,0,0,100,0.00,40.00,0,-999,0,0.00
2013-3-21,66,55,49,-100,-100,-100,0,0,100,0.00,40.00,0,-999,0,0.00
2013-3-22,62,56,46,-100,-100,-100,0,0,100,0.00,40.00,0,-999,0,0.00
2013-3-23,54,48,40,-100,-100,-100,0,0,100,0.00,40.00,0,-999,0,0.00
2013-3-24,52,44,36,-100,-100,-100,0,0,100,0.00,40.00,0,-999,0,0.00
2013-3-25,53,41,28,-100,-100,-100,0,0,100,0.00,40.00,0,-999,0,0.00
2013-3-26,58,36,25,-100,-100,-100,0,0,100,0.00,40.00,0,-999,0,0.00
2013-3-27,66,51,36,-100,-100,-100,0,0,100,0.00,40.00,0,-999,0,0.00
2013-3-28,68,56,46,-100,-100,-100,0,0,100,0.00,40.00,0,-999,0,0.00
2013-3-29,72,63,56,-100,-100,-100,0,0,100,0.00,40.00,0,-999,0,0.00
2013-3-30,73,62,51,-100,-100,-100,0,0,100,0.00,40.00,0,-999,0,0.00
2013-3-31,77,65,61,-100,-100,-100,0,0,100,0.00,40.00,0,-999,0,0.00